Time;durP1;ratioP1;P1;durP2;ratioP2;P2;SDS_P1;SDS_P2;PMS_P1;PMS_P2;Temp;Humidity;BMP_temperature;BMP_pressure;BME280_temperature;BME280_humidity;BME280_pressure;Samples;Min_cycle;Max_cycle;Signal;HPM_P1;HPM_P2
2022/08/04 00:00:38;;;;;;;13.68;9.63;;;;;;;19.06;69.39;100608.19;1719070;82;25777;-70
2022/08/04 00:03:15;;;;;;;12.05;9.80;;;;;;;19.03;69.38;100608.34;1727861;82;25589;-70
2022/08/04 00:06:05;;;;;;;9.68;8.45;;;;;;;19.02;69.30;100605.96;1707446;82;25656;-70
2022/08/04 00:08:49;;;;;;;9.98;8.35;;;;;;;19.01;69.34;100611.22;1696693;82;27439;-70
2022/08/04 00:11:22;;;;;;;12.70;8.38;;;;;;;19.01;69.26;100611.22;1723537;82;25636;-70
2022/08/04 00:14:12;;;;;;;11.90;9.13;;;;;;;18.99;69.52;100610.20;1716361;82;25693;-70
2022/08/04 00:16:41;;;;;;;9.63;8.68;;;;;;;18.97;69.29;100606.24;1713686;82;25453;-70
2022/08/04 00:19:31;;;;;;;8.83;8.03;;;;;;;18.96;69.32;100610.13;1719289;82;25607;-70
2022/08/04 00:22:07;;;;;;;12.95;8.95;;;;;;;18.96;69.47;100608.16;1720493;83;28189;-69
2022/08/04 00:24:35;;;;;;;10.55;9.43;;;;;;;18.94;69.47;100609.70;1713023;83;25263;-70
2022/08/04 00:27:03;;;;;;;10.63;8.63;;;;;;;18.93;69.45;100608.88;1705707;83;25649;-70
2022/08/04 00:29:30;;;;;;;9.65;8.40;;;;;;;18.92;69.47;100608.67;1713057;82;25525;-71
2022/08/04 00:31:57;;;;;;;9.18;8.28;;;;;;;18.90;69.39;100613.73;1686628;83;25359;-71
2022/08/04 00:34:27;;;;;;;11.03;8.80;;;;;;;18.90;69.42;100612.91;1708773;83;27476;-71
2022/08/04 00:36:54;;;;;;;;;;;;;;;18.89;69.56;100613.50;1710326;82;25471;-70
2022/08/04 00:39:21;;;;;;;9.13;7.80;;;;;;;18.87;69.57;100608.95;1728426;82;25736;-71
2022/08/04 00:42:34;;;;;;;10.48;8.50;;;;;;;18.86;69.32;100616.95;1707707;82;25497;-71
2022/08/04 00:45:27;;;;;;;10.23;8.73;;;;;;;18.83;69.40;100615.73;1707679;82;25740;-70
2022/08/04 00:48:14;;;;;;;8.35;7.55;;;;;;;18.81;69.33;100612.53;1728056;82;28652;-70
2022/08/04 00:50:58;;;;;;;12.80;8.65;;;;;;;18.81;69.37;100614.45;1707584;82;26211;-70
2022/08/04 00:54:12;;;;;;;11.65;8.93;;;;;;;18.79;69.47;100617.55;1728280;82;25628;-70
2022/08/04 00:57:32;;;;;;;9.73;7.97;;;;;;;18.75;69.55;100612.58;1707449;82;25463;-69
2022/08/04 01:00:14;;;;;;;11.22;8.23;;;;;;;18.74;69.49;100613.71;1704792;82;26169;-71
2022/08/04 01:03:11;;;;;;;13.62;8.68;;;;;;;18.72;69.47;100620.72;1707264;82;27489;-69
2022/08/04 01:06:05;;;;;;;8.48;7.50;;;;;;;18.69;69.53;100623.58;1706375;82;25802;-69
2022/08/04 01:09:05;;;;;;;11.53;8.30;;;;;;;18.67;69.53;100628.04;1712404;82;25662;-70
2022/08/04 01:12:18;;;;;;;9.93;8.93;;;;;;;18.65;69.63;100622.12;1715913;82;25697;-70
2022/08/04 01:15:08;;;;;;;9.45;8.55;;;;;;;18.64;69.65;100625.22;1707022;82;25619;-70
2022/08/04 01:17:43;;;;;;;9.00;8.10;;;;;;;18.61;69.71;100633.59;1706035;82;27653;-70
2022/08/04 01:20:14;;;;;;;9.43;8.53;;;;;;;18.59;69.71;100636.45;1730032;82;25376;-70
2022/08/04 01:23:23;;;;;;;8.40;7.40;;;;;;;18.55;69.70;100632.26;1725278;82;25447;-68
2022/08/04 01:26:07;;;;;;;9.73;8.25;;;;;;;18.54;69.56;100630.69;1707504;82;25589;-69
2022/08/04 01:29:00;;;;;;;11.30;8.58;;;;;;;18.51;69.71;100627.84;1707697;82;25323;-69
2022/08/04 01:31:58;;;;;;;9.10;8.30;;;;;;;18.48;69.92;100624.66;1707325;82;28337;-68
2022/08/04 01:34:32;;;;;;;9.90;8.15;;;;;;;18.45;70.01;100628.11;1717112;82;25853;-72
2022/08/04 01:37:13;;;;;;;10.80;8.38;;;;;;;18.42;70.19;100630.76;1736893;81;25457;-70
2022/08/04 01:39:50;;;;;;;9.05;8.15;;;;;;;18.39;70.04;100632.28;1710466;82;25472;-70
2022/08/04 01:42:20;;;;;;;10.68;8.70;;;;;;;18.36;70.17;100628.09;1707831;82;25434;-70
2022/08/04 01:44:47;;;;;;;8.75;7.95;;;;;;;18.34;70.25;100627.62;1707536;82;27468;-69
2022/08/04 01:47:17;;;;;;;10.25;8.40;;;;;;;18.29;70.07;100632.23;1707536;82;25638;-70
2022/08/04 01:49:48;;;;;;;10.55;8.25;;;;;;;18.27;70.21;100636.48;1728693;82;25521;-70
2022/08/04 01:52:17;;;;;;;10.15;8.95;;;;;;;18.26;70.26;100630.19;1702998;82;25736;-70
2022/08/04 01:54:45;;;;;;;10.63;9.40;;;;;;;18.25;70.37;100626.43;1724005;82;25742;-70
2022/08/04 01:57:11;;;;;;;11.95;9.00;;;;;;;18.23;70.35;100627.36;1730506;82;28281;-69
2022/08/04 01:59:39;;;;;;;9.40;8.10;;;;;;;18.21;70.51;100628.30;1739373;82;25530;-70
2022/08/04 02:02:05;;;;;;;9.60;8.70;;;;;;;18.20;70.40;100634.35;1707630;82;25637;-70
2022/08/04 02:04:34;;;;;;;12.15;9.03;;;;;;;18.17;70.54;100628.79;1709908;82;25596;-70
2022/08/04 02:07:37;;;;;;;11.08;9.60;;;;;;;18.15;70.43;100631.06;1737338;82;25593;-70
2022/08/04 02:10:09;;;;;;;11.18;9.05;;;;;;;18.13;70.67;100627.30;1708106;82;27534;-69
2022/08/04 02:12:44;;;;;;;9.90;8.80;;;;;;;18.11;70.74;100629.61;1738176;81;25672;-69
2022/08/04 02:15:42;;;;;;;13.85;10.08;;;;;;;18.08;70.80;100631.67;1699928;82;25403;-70
2022/08/04 02:18:17;;;;;;;12.23;9.50;;;;;;;18.05;70.80;100632.39;1692654;82;26207;-70
2022/08/04 02:20:47;;;;;;;8.68;7.95;;;;;;;18.01;70.88;100620.55;1706513;82;25431;-70
2022/08/04 02:23:25;;;;;;;9.88;8.95;;;;;;;17.99;71.03;100620.89;1709986;81;27543;-70
2022/08/04 02:26:05;;;;;;;8.93;8.03;;;;;;;17.96;71.14;100618.85;1720364;82;25609;-70
2022/08/04 02:28:49;;;;;;;9.48;8.48;;;;;;;17.92;71.17;100616.02;1739773;82;25605;-71
2022/08/04 02:31:35;;;;;;;11.40;9.40;;;;;;;17.90;71.07;100616.17;1730915;82;25559;-69
2022/08/04 02:34:30;;;;;;;10.20;9.08;;;;;;;17.86;71.20;100611.97;1731584;82;25757;-70
2022/08/04 02:36:59;;;;;;;9.80;8.80;;;;;;;17.84;71.46;100613.42;1694770;82;27521;-69
2022/08/04 02:39:33;;;;;;;13.28;9.63;;;;;;;17.79;71.27;100610.36;1705579;81;25565;-69
2022/08/04 02:42:04;;;;;;;11.78;9.90;;;;;;;17.76;71.34;100617.11;1692652;82;25510;-69
2022/08/04 02:44:31;;;;;;;10.35;9.28;;;;;;;17.72;71.37;100608.81;1692483;82;25563;-67
2022/08/04 02:47:00;;;;;;;16.73;9.50;;;;;;;17.70;71.44;100609.16;1693401;82;25459;-69
2022/08/04 02:49:29;;;;;;;10.60;9.58;;;;;;;17.68;71.68;100612.03;1726451;82;27581;-69
2022/08/04 02:51:57;;;;;;;12.43;10.03;;;;;;;17.66;71.48;100614.33;1727144;82;29744;-69
2022/08/04 02:54:39;;;;;;;11.10;9.70;;;;;;;17.62;71.62;100611.50;1692206;82;25549;-69
2022/08/04 02:57:12;;;;;;;10.93;9.90;;;;;;;17.58;71.72;100609.80;1703457;82;25559;-69
2022/08/04 02:59:59;;;;;;;9.90;8.90;;;;;;;17.54;71.67;100611.86;1712724;82;25394;-70
2022/08/04 03:02:39;;;;;;;10.55;9.53;;;;;;;17.52;71.78;100610.60;1739437;82;28308;-70
2022/08/04 03:05:25;;;;;;;11.08;9.93;;;;;;;17.48;71.74;100610.50;1690499;82;25388;-69
2022/08/04 03:08:38;;;;;;;13.40;9.85;;;;;;;17.45;71.92;100610.41;1692665;82;25494;-69
2022/08/04 03:11:44;;;;;;;12.90;10.40;;;;;;;17.39;72.07;100609.87;1710902;81;25636;-70
2022/08/04 03:14:25;;;;;;;10.75;9.65;;;;;;;17.34;72.31;100615.00;1716071;82;25588;-69
2022/08/04 03:17:29;;;;;;;10.98;9.18;;;;;;;17.32;72.63;100613.77;1696261;82;28179;-68
2022/08/04 03:20:39;;;;;;;11.15;10.00;;;;;;;17.29;72.65;100614.46;1739332;82;25873;-70
2022/08/04 03:23:44;;;;;;;10.75;9.73;;;;;;;17.27;72.88;100613.44;1647793;85;25614;-69
2022/08/04 03:26:37;;;;;;;10.93;9.60;;;;;;;17.25;72.96;100621.78;1670658;84;25590;-71
2022/08/04 03:29:18;;;;;;;10.68;9.35;;;;;;;17.25;72.99;100627.24;1633175;85;25599;-69
2022/08/04 03:32:09;;;;;;;11.60;9.05;;;;;;;17.24;73.14;100622.91;1654994;84;27519;-70
2022/08/04 03:35:09;;;;;;;10.98;9.83;;;;;;;17.23;73.13;100626.77;1654495;85;25599;-70
2022/08/04 03:38:08;;;;;;;14.03;10.53;;;;;;;17.22;73.12;100627.93;1637979;85;25734;-70
2022/08/04 03:41:12;;;;;;;10.78;9.38;;;;;;;17.21;73.25;100638.62;1638243;86;25724;-70
2022/08/04 03:43:49;;;;;;;10.90;9.90;;;;;;;17.24;73.38;100636.57;1638336;85;25532;-69
2022/08/04 03:46:43;;;;;;;11.95;9.75;;;;;;;17.18;73.40;100634.08;1638336;85;28122;-70
2022/08/04 03:49:39;;;;;;;10.75;9.65;;;;;;;17.17;73.52;100632.48;1632021;87;25547;-69
2022/08/04 03:55:46;;;;;;;11.50;10.32;;;;;;;17.17;73.77;100640.67;1642776;87;25597;-68
2022/08/04 03:58:39;;;;;;;11.60;9.95;;;;;;;17.20;73.90;100639.20;1645884;85;25315;-72
2022/08/04 04:01:38;;;;;;;11.53;10.32;;;;;;;17.20;73.90;100644.67;1645659;87;27501;-69
2022/08/04 04:04:32;;;;;;;12.00;10.72;;;;;;;17.22;74.06;100642.38;1630744;87;25756;-69
2022/08/04 04:07:16;;;;;;;9.75;8.85;;;;;;;17.26;74.13;100650.11;1645304;87;25435;-68
2022/08/04 04:10:11;;;;;;;12.50;10.15;;;;;;;17.30;74.22;100646.13;1583199;88;25784;-70
2022/08/04 04:13:17;;;;;;;11.30;10.00;;;;;;;17.32;74.23;100653.41;1616433;88;25564;-69
2022/08/04 04:16:25;;;;;;;10.13;9.15;;;;;;;17.36;74.41;100652.36;1606927;88;27464;-70
2022/08/04 04:19:17;;;;;;;10.70;9.60;;;;;;;17.43;74.63;100659.19;1591672;88;25570;-71
2022/08/04 04:21:55;;;;;;;10.38;9.33;;;;;;;17.46;74.32;100664.75;1615830;88;25758;-69
2022/08/04 04:24:46;;;;;;;11.50;10.35;;;;;;;17.51;74.24;100657.67;1659164;85;25792;-69
2022/08/04 04:27:33;;;;;;;10.25;9.10;;;;;;;17.58;74.30;100657.66;1663927;85;25621;-70
2022/08/04 04:30:10;;;;;;;10.88;9.65;;;;;;;17.65;74.25;100666.06;1663098;86;27488;-71
2022/08/04 04:33:09;;;;;;;10.40;9.40;;;;;;;17.70;74.14;100663.86;1672916;85;25435;-69
2022/08/04 04:36:20;;;;;;;10.00;9.00;;;;;;;17.76;73.92;100662.25;1661285;84;25476;-70
2022/08/04 04:39:10;;;;;;;11.57;8.88;;;;;;;17.83;73.86;100662.47;1670959;85;25707;-68
2022/08/04 04:42:00;;;;;;;10.10;7.87;;;;;;;17.90;73.84;100656.63;1683438;85;25772;-69
2022/08/04 04:45:13;;;;;;;11.22;9.65;;;;;;;17.98;73.62;100659.55;1674817;84;27661;-68
2022/08/04 04:48:06;;;;;;;10.13;8.03;;;;;;;18.07;73.60;100665.68;1698666;82;25310;-70
2022/08/04 04:51:06;;;;;;;11.55;7.85;;;;;;;18.16;73.39;100659.45;1721808;82;25628;-70
2022/08/04 04:53:57;;;;;;;9.15;8.15;;;;;;;18.24;73.13;100662.60;1734669;82;25568;-71
2022/08/04 04:56:42;;;;;;;10.70;7.62;;;;;;;18.35;72.73;100665.61;1715065;82;25426;-71
2022/08/04 04:59:14;;;;;;;9.80;7.72;;;;;;;18.45;72.68;100666.45;1724168;82;27950;-71
2022/08/04 05:02:15;;;;;;;9.10;7.92;;;;;;;18.56;72.62;100669.47;1712084;82;25623;-70
2022/08/04 05:04:58;;;;;;;12.00;7.80;;;;;;;18.66;72.66;100674.41;1707971;82;25525;-70
2022/08/04 05:07:57;;;;;;;8.40;7.62;;;;;;;18.78;72.03;100672.70;1707655;82;26341;-71
2022/08/04 05:10:42;;;;;;;;;;;;;;;18.89;72.24;100677.12;1730755;82;25506;-70
2022/08/04 05:13:42;;;;;;;7.55;6.62;;;;;;;19.02;71.80;100672.53;1706696;82;27524;-70
2022/08/04 05:16:50;;;;;;;9.13;6.75;;;;;;;19.13;71.69;100671.98;1722663;82;25711;-70
2022/08/04 05:19:39;;;;;;;9.33;7.00;;;;;;;19.27;71.55;100672.86;1736427;82;25420;-71
2022/08/04 05:22:25;;;;;;;10.18;6.42;;;;;;;19.41;70.99;100680.83;1710417;82;25589;-71
2022/08/04 05:25:03;;;;;;;7.67;6.08;;;;;;;19.55;70.75;100673.47;1707891;82;25703;-71
2022/08/04 05:27:40;;;;;;;6.50;5.90;;;;;;;19.71;70.32;100671.22;1695761;82;27607;-72
2022/08/04 05:30:10;;;;;;;7.58;5.80;;;;;;;19.85;69.97;100672.89;1718501;82;25415;-70
2022/08/04 05:32:51;;;;;;;8.38;5.72;;;;;;;20.00;69.41;100673.18;1736564;81;25422;-71
2022/08/04 05:35:38;;;;;;;7.67;5.47;;;;;;;20.13;68.93;100673.23;1716493;81;25673;-71
2022/08/04 05:38:07;;;;;;;6.33;5.15;;;;;;;20.31;68.58;100679.02;1705495;82;25583;-71
2022/08/04 05:40:33;;;;;;;5.53;5.05;;;;;;;20.46;68.35;100680.06;1726694;82;27456;-71
2022/08/04 05:43:01;;;;;;;6.45;5.72;;;;;;;20.61;67.80;100674.23;1698812;82;25628;-71
2022/08/04 05:45:29;;;;;;;6.50;5.12;;;;;;;20.77;67.75;100680.98;1692753;82;25473;-71
2022/08/04 05:47:55;;;;;;;6.62;5.10;;;;;;;20.90;67.48;100681.78;1692276;82;25519;-71
2022/08/04 05:50:23;;;;;;;9.78;4.80;;;;;;;21.06;66.68;100679.45;1711343;82;25412;-71
2022/08/04 05:52:51;;;;;;;9.63;4.75;;;;;;;21.19;65.89;100678.66;1706080;82;27539;-71
2022/08/04 05:55:19;;;;;;;6.92;4.92;;;;;;;21.34;65.76;100687.31;1707599;82;25398;-71
2022/08/04 05:57:48;;;;;;;10.98;5.47;;;;;;;21.49;65.29;100689.70;1739604;82;25386;-70
2022/08/04 06:00:17;;;;;;;7.60;4.53;;;;;;;21.65;65.22;100690.87;1728076;81;25487;-70
2022/08/04 06:02:46;;;;;;;7.62;4.40;;;;;;;21.81;64.49;100691.47;1692815;82;25434;-70
2022/08/04 06:05:14;;;;;;;11.60;4.97;;;;;;;21.94;63.61;100700.25;1725314;82;28124;-70
2022/08/04 06:07:42;;;;;;;7.35;5.05;;;;;;;22.10;63.68;100697.85;1665145;84;25686;-71
2022/08/04 06:10:08;;;;;;;5.17;4.20;;;;;;;22.23;62.95;100699.77;1725982;81;25552;-71
2022/08/04 06:12:48;;;;;;;6.83;3.90;;;;;;;22.35;62.20;100698.91;1692679;82;25561;-71
2022/08/04 06:15:19;;;;;;;7.10;3.90;;;;;;;22.48;61.73;100700.81;1699643;82;25772;-70
2022/08/04 06:17:56;;;;;;;4.60;4.20;;;;;;;22.65;61.47;100702.73;1739403;82;27509;-70
2022/08/04 06:20:31;;;;;;;8.08;3.80;;;;;;;22.80;61.39;100704.99;1711494;82;25544;-70
2022/08/04 06:23:02;;;;;;;6.22;4.22;;;;;;;22.94;60.51;100706.49;1692533;82;25485;-70
2022/08/04 06:25:40;;;;;;;4.72;3.80;;;;;;;23.09;60.19;100704.06;1732327;82;26402;-70
2022/08/04 06:28:07;;;;;;;5.72;4.37;;;;;;;23.26;59.11;100710.08;1714637;81;25393;-71
2022/08/04 06:30:36;;;;;;;4.03;3.50;;;;;;;23.38;58.55;100708.93;1732013;82;28260;-70
2022/08/04 06:33:22;;;;;;;6.50;4.03;;;;;;;23.52;58.24;100695.22;1731596;82;25630;-70
2022/08/04 06:35:33;;;;;;;8.70;4.05;;;;;;;23.69;58.14;100695.09;1678137;83;25637;-71
2022/08/04 06:38:01;;;;;;;4.78;3.75;;;;;;;23.91;58.47;100700.12;1669984;85;26648;-71
2022/08/04 06:40:29;;;;;;;5.45;3.83;;;;;;;24.16;58.10;100692.46;1715267;83;25670;-70
2022/08/04 06:42:55;;;;;;;5.53;3.72;;;;;;;24.38;57.81;100695.47;1704981;82;27442;-70
2022/08/04 06:45:23;;;;;;;5.10;4.50;;;;;;;24.60;57.36;100700.44;1699949;83;25475;-70
2022/08/04 06:47:49;;;;;;;5.75;3.85;;;;;;;24.84;56.71;100699.41;1701366;83;25568;-70
2022/08/04 06:50:16;;;;;;;3.72;3.30;;;;;;;25.10;56.57;100702.36;1693945;84;25616;-70
2022/08/04 06:52:45;;;;;;;3.55;2.80;;;;;;;25.35;55.17;100701.52;1647888;85;25438;-69
2022/08/04 06:55:12;;;;;;;7.85;3.67;;;;;;;25.52;53.12;100700.68;1666003;85;27494;-70
2022/08/04 06:57:41;;;;;;;4.17;3.37;;;;;;;25.69;52.95;100703.18;1662769;85;25497;-70
2022/08/04 07:00:13;;;;;;;6.70;3.37;;;;;;;25.87;51.91;100696.75;1649079;85;25571;-70
2022/08/04 07:02:49;;;;;;;4.10;3.20;;;;;;;26.04;52.69;100695.10;1646078;85;25662;-70
2022/08/04 07:05:17;;;;;;;4.83;3.17;;;;;;;26.28;52.60;100692.74;1665993;85;25610;-71
2022/08/04 07:07:45;;;;;;;11.20;3.85;;;;;;;26.46;50.68;100691.23;1646284;85;28199;-70
2022/08/04 07:10:13;;;;;;;3.92;3.17;;;;;;;26.69;50.96;100695.42;1664560;85;25754;-71
2022/08/04 07:12:40;;;;;;;6.62;3.12;;;;;;;26.93;50.17;100692.83;1659730;85;25432;-72
2022/08/04 07:15:09;;;;;;;9.45;3.52;;;;;;;27.10;49.63;100696.01;1654631;85;25654;-70
2022/08/04 07:17:37;;;;;;;6.87;3.27;;;;;;;27.33;49.62;100696.00;1652530;85;25628;-70
2022/08/04 07:20:06;;;;;;;4.70;2.83;;;;;;;27.62;48.46;100691.46;1654426;85;27472;-68
2022/08/04 07:22:34;;;;;;;4.42;3.25;;;;;;;27.86;48.62;100697.30;1646825;85;25607;-68
2022/08/04 07:25:01;;;;;;;3.37;2.87;;;;;;;28.10;48.50;100690.44;1664601;85;25446;-68
2022/08/04 07:27:28;;;;;;;3.42;2.62;;;;;;;28.34;47.66;100687.09;1666646;85;25543;-69
2022/08/04 07:29:55;;;;;;;4.35;2.52;;;;;;;28.54;47.29;100688.55;1660424;85;25621;-68
2022/08/04 07:32:22;;;;;;;4.05;3.10;;;;;;;28.63;45.64;100686.64;1658861;85;28250;-68
2022/08/04 07:34:50;;;;;;;5.83;3.70;;;;;;;28.61;45.21;100691.23;1663614;85;25725;-67
2022/08/04 07:37:17;;;;;;;5.87;2.73;;;;;;;28.62;44.98;100690.63;1658938;85;25435;-68
2022/08/04 07:39:44;;;;;;;4.10;2.58;;;;;;;28.62;44.65;100698.39;1663418;85;25576;-67
2022/08/04 07:42:11;;;;;;;5.50;3.00;;;;;;;28.56;43.92;100694.50;1662067;85;25720;-67
2022/08/04 07:44:38;;;;;;;5.75;2.90;;;;;;;28.50;44.02;100691.98;1660625;85;27483;-67
2022/08/04 07:47:07;;;;;;;3.40;2.60;;;;;;;28.53;43.94;100695.31;1702441;83;25811;-67
2022/08/04 07:49:34;;;;;;;;;;;;;;;28.64;43.76;100691.78;1722161;82;25391;-68
2022/08/04 07:52:01;;;;;;;3.98;2.55;;;;;;;28.85;43.12;100689.22;1718291;82;25642;-67
2022/08/04 07:54:28;;;;;;;3.00;2.70;;;;;;;29.05;43.04;100687.86;1723422;82;25957;-68
2022/08/04 07:56:55;;;;;;;3.35;2.25;;;;;;;29.21;43.19;100685.00;1713626;83;28224;-67
2022/08/04 07:59:22;;;;;;;5.85;2.50;;;;;;;29.36;43.02;100688.30;1721345;83;25392;-68
2022/08/04 08:01:49;;;;;;;6.62;2.67;;;;;;;29.49;41.82;100691.20;1721944;83;25846;-68
2022/08/04 08:04:16;;;;;;;2.72;2.40;;;;;;;29.42;41.14;100688.75;1699652;83;26125;-68
2022/08/04 08:06:43;;;;;;;2.60;2.33;;;;;;;29.29;41.13;100692.00;1724312;82;26385;-68
2022/08/04 08:09:17;;;;;;;4.97;2.20;;;;;;;29.30;41.43;100685.81;1718289;82;27433;-68
2022/08/04 08:11:46;;;;;;;2.92;2.47;;;;;;;29.50;41.09;100687.98;1719370;83;25454;-68
2022/08/04 08:14:14;;;;;;;2.80;2.60;;;;;;;29.73;41.03;100686.30;1721368;82;25935;-67
2022/08/04 08:16:41;;;;;;;2.90;2.65;;;;;;;29.94;40.60;100687.25;1721842;83;25634;-66
2022/08/04 08:19:10;;;;;;;3.58;2.77;;;;;;;30.02;40.18;100682.90;1722118;82;25734;-66
2022/08/04 08:21:37;;;;;;;3.10;2.42;;;;;;;30.17;40.69;100682.14;1717617;82;27494;-67
2022/08/04 08:24:05;;;;;;;2.67;2.47;;;;;;;30.50;40.75;100682.16;1720297;82;25734;-68
2022/08/04 08:26:32;;;;;;;6.33;2.58;;;;;;;30.82;39.77;100688.11;1721615;82;25708;-67
2022/08/04 08:28:58;;;;;;;5.58;2.72;;;;;;;30.87;39.03;100687.58;1713472;82;26200;-67
2022/08/04 08:31:25;;;;;;;4.17;2.50;;;;;;;30.86;39.31;100681.84;1724146;82;25525;-68
2022/08/04 08:33:52;;;;;;;2.70;2.50;;;;;;;30.90;39.34;100687.52;1702709;82;27462;-67
2022/08/04 08:36:46;;;;;;;3.50;2.60;;;;;;;30.97;38.83;100694.91;1685430;83;26656;-67
2022/08/04 08:39:59;;;;;;;5.47;2.42;;;;;;;31.14;38.76;100686.48;1690110;83;25271;-66
2022/08/04 08:43:00;;;;;;;4.45;2.60;;;;;;;31.39;38.06;100683.77;1696737;83;25694;-68
2022/08/04 08:45:59;;;;;;;3.52;2.85;;;;;;;31.50;38.46;100693.28;1695552;83;25624;-68
2022/08/04 08:49:17;;;;;;;5.58;2.87;;;;;;;31.60;37.29;100685.19;1692871;83;27517;-67
2022/08/04 08:51:54;;;;;;;3.52;2.77;;;;;;;31.71;37.93;100692.47;1694919;83;25626;-68
2022/08/04 08:54:50;;;;;;;3.40;2.52;;;;;;;32.25;38.36;100686.59;1690602;84;25653;-68
2022/08/04 08:57:43;;;;;;;4.22;2.60;;;;;;;32.55;35.71;100694.99;1610738;87;26449;-68
2022/08/04 09:00:27;;;;;;;4.62;3.00;;;;;;;32.51;35.70;100692.31;1609774;87;25557;-68
2022/08/04 09:03:34;;;;;;;2.58;2.35;;;;;;;32.76;36.28;100685.89;1602806;88;28253;-67
2022/08/04 09:06:32;;;;;;;4.42;2.33;;;;;;;33.11;36.01;100686.47;1609669;88;25892;-68
2022/08/04 09:09:22;;;;;;;4.90;2.45;;;;;;;33.27;35.01;100682.70;1613790;87;25667;-68
2022/08/04 09:12:24;;;;;;;5.30;2.40;;;;;;;33.28;34.04;100682.25;1608838;87;25707;-71
2022/08/04 09:15:28;;;;;;;4.30;2.45;;;;;;;33.41;34.05;100676.58;1611123;88;25794;-68
2022/08/04 09:18:02;;;;;;;3.10;2.65;;;;;;;33.36;32.75;100684.17;1610549;87;27531;-69
2022/08/04 09:20:54;;;;;;;3.20;2.47;;;;;;;33.10;32.84;100679.28;1609941;87;25617;-67
2022/08/04 09:24:04;;;;;;;3.02;2.72;;;;;;;33.15;33.28;100680.76;1610460;87;25702;-67
2022/08/04 09:26:54;;;;;;;2.60;2.50;;;;;;;33.20;33.74;100672.53;1610873;87;25652;-68
2022/08/04 09:30:03;;;;;;;10.75;7.12;;;;;;;33.50;33.70;100666.80;1616266;87;25898;-68
2022/08/04 09:33:00;;;;;;;4.83;2.80;;;;;;;33.86;33.91;100666.83;1610938;86;27597;-68
2022/08/04 09:36:17;;;;;;;4.62;2.60;;;;;;;34.15;32.52;100663.50;1694350;83;25915;-69
2022/08/04 09:38:51;;;;;;;3.98;3.17;;;;;;;34.10;32.03;100664.88;1666464;85;25796;-68
2022/08/04 09:41:41;;;;;;;4.83;2.80;;;;;;;33.84;31.76;100660.91;1711664;82;26156;-70
2022/08/04 09:44:41;;;;;;;11.18;3.47;;;;;;;33.78;31.97;100661.37;1704044;83;25574;-67
2022/08/04 09:47:30;;;;;;;3.52;2.50;;;;;;;33.87;32.09;100668.41;1655775;85;27701;-67
2022/08/04 09:50:09;;;;;;;7.35;3.00;;;;;;;34.21;32.25;100672.27;1656691;85;25779;-68
2022/08/04 09:53:06;;;;;;;3.58;3.02;;;;;;;34.58;31.70;100671.53;1659459;85;26748;-69
2022/08/04 09:55:56;;;;;;;6.50;3.17;;;;;;;34.75;31.47;100675.64;1665580;85;26147;-69
2022/08/04 09:59:10;;;;;;;5.17;3.25;;;;;;;35.04;31.06;100667.33;1663171;85;25746;-69
2022/08/04 10:01:37;;;;;;;4.40;2.90;;;;;;;35.09;30.61;100662.51;1660959;85;27513;-67
2022/08/04 10:04:08;;;;;;;3.60;3.12;;;;;;;35.13;30.94;100662.34;1656780;85;25747;-66
2022/08/04 10:06:49;;;;;;;3.35;3.15;;;;;;;35.39;30.75;100664.81;1633923;85;25779;-67
2022/08/04 10:09:57;;;;;;;4.37;2.80;;;;;;;35.05;29.83;100668.13;1657167;85;26120;-69
2022/08/04 10:12:29;;;;;;;2.87;2.67;;;;;;;35.24;29.67;100668.91;1671758;85;25817;-68
2022/08/04 10:15:40;;;;;;;3.10;2.83;;;;;;;35.24;29.67;100668.91;1653391;85;27501;-68
2022/08/04 10:18:18;;;;;;;5.80;3.33;;;;;;;35.32;30.13;100667.33;1621090;88;26069;-68
2022/08/04 10:21:02;;;;;;;3.35;3.15;;;;;;;35.48;29.96;100664.13;1606942;88;25791;-68
2022/08/04 10:23:48;;;;;;;3.47;3.27;;;;;;;35.62;29.73;100657.08;1593668;88;25679;-68
2022/08/04 10:26:36;;;;;;;5.05;3.47;;;;;;;35.57;29.29;100656.31;1619785;88;25695;-68
2022/08/04 10:29:23;;;;;;;8.10;3.37;;;;;;;35.31;29.22;100654.51;1618391;87;27140;-68
2022/08/04 10:32:06;;;;;;;5.75;3.67;;;;;;;35.16;29.63;100648.13;1619480;88;25764;-68
2022/08/04 10:34:44;;;;;;;9.43;3.80;;;;;;;35.26;29.93;100642.49;1631655;87;25678;-68
2022/08/04 10:37:23;;;;;;;9.75;3.90;;;;;;;35.47;30.11;100642.91;1627381;87;26247;-71
2022/08/04 10:43:11;;;;;;;10.53;3.45;;;;;;;35.83;29.78;100644.03;1616782;86;27534;-69
2022/08/04 10:46:20;;;;;;;3.83;3.50;;;;;;;36.11;29.40;100648.72;1599392;89;25774;-69
2022/08/04 10:48:57;;;;;;;3.20;2.90;;;;;;;36.13;29.21;100644.80;1597749;88;25933;-70
2022/08/04 10:51:59;;;;;;;8.15;4.12;;;;;;;36.31;28.63;100650.33;1599969;89;25838;-70
2022/08/04 10:54:42;;;;;;;7.20;4.22;;;;;;;36.33;28.50;100642.18;1608413;86;26455;-71
2022/08/04 10:57:22;;;;;;;5.72;3.77;;;;;;;36.22;28.77;100627.25;1666573;85;27404;-70
2022/08/04 11:00:18;;;;;;;4.83;3.87;;;;;;;36.24;29.12;100624.72;1649571;85;25728;-70
2022/08/04 11:03:14;;;;;;;6.62;3.67;;;;;;;36.53;29.44;100635.93;1633633;85;25525;-72
2022/08/04 11:05:52;;;;;;;7.37;3.45;;;;;;;36.75;29.04;100624.98;1628579;87;25476;-69
2022/08/04 11:08:44;;;;;;;7.42;3.30;;;;;;;37.15;28.94;100632.08;1628683;87;25698;-70
2022/08/04 11:11:40;;;;;;;4.45;2.80;;;;;;;37.41;27.99;100619.61;1614078;87;28131;-72
2022/08/04 11:14:15;;;;;;;2.60;2.40;;;;;;;37.50;27.71;100620.12;1628873;87;25784;-70
2022/08/04 11:16:55;;;;;;;3.83;2.62;;;;;;;37.54;26.20;100620.69;1623292;88;25895;-70
2022/08/04 11:19:49;;;;;;;4.92;3.10;;;;;;;37.24;26.23;100633.43;1618657;88;26853;-74
2022/08/04 11:22:27;;;;;;;4.25;3.27;;;;;;;36.78;26.13;100633.24;1625938;86;25714;-73
2022/08/04 11:24:58;;;;;;;6.40;2.70;;;;;;;36.53;27.32;100624.66;1638186;85;28079;-72
2022/08/04 11:27:45;;;;;;;3.10;2.90;;;;;;;36.48;27.22;100621.11;1639532;84;25681;-72
2022/08/04 11:30:14;;;;;;;3.72;2.67;;;;;;;36.54;27.70;100619.80;1671749;84;25511;-71
2022/08/04 11:32:50;;;;;;;4.12;3.72;;;;;;;36.62;27.24;100613.94;1620107;87;25726;-72
2022/08/04 11:35:25;;;;;;;3.12;2.83;;;;;;;36.82;26.86;100613.32;1618583;87;25834;-70
2022/08/04 11:38:01;;;;;;;4.72;3.33;;;;;;;36.88;26.12;100624.69;1620242;87;27437;-72
2022/08/04 11:40:41;;;;;;;3.33;2.77;;;;;;;36.71;26.40;100610.28;1685681;82;26238;-70
2022/08/04 11:43:28;;;;;;;5.37;3.10;;;;;;;36.73;26.82;100609.97;1695972;81;25651;-70
2022/08/04 11:45:59;;;;;;;4.67;2.55;;;;;;;36.88;26.22;100619.84;1722664;82;25658;-72
2022/08/04 11:48:36;;;;;;;5.37;2.77;;;;;;;36.83;25.52;100615.66;1724949;81;25736;-71
2022/08/04 11:51:05;;;;;;;6.30;4.03;;;;;;;36.58;25.33;100614.13;1692055;82;27480;-72
2022/08/04 11:53:34;;;;;;;3.30;2.83;;;;;;;36.50;25.86;100615.00;1727202;82;25741;-71
2022/08/04 11:56:04;;;;;;;3.58;2.22;;;;;;;36.61;26.27;100616.63;1739040;81;25636;-71
2022/08/04 11:58:31;;;;;;;2.98;2.70;;;;;;;36.55;25.01;100610.87;1706018;82;25735;-72
2022/08/04 12:01:18;;;;;;;6.33;2.58;;;;;;;36.50;25.47;100603.73;1725841;82;25422;-71
2022/08/04 12:03:55;;;;;;;10.70;2.80;;;;;;;36.57;25.45;100611.80;1719890;81;27299;-73
2022/08/04 12:06:48;;;;;;;3.90;2.83;;;;;;;36.62;26.18;100603.44;1711325;82;25738;-71
2022/08/04 12:09:37;;;;;;;5.50;2.85;;;;;;;36.66;25.61;100611.73;1693329;82;25743;-71
2022/08/04 12:12:33;;;;;;;3.37;2.52;;;;;;;36.83;25.62;100599.39;1703745;82;25700;-70
2022/08/04 12:15:26;;;;;;;3.55;2.42;;;;;;;37.12;25.41;100592.17;1691353;83;26355;-71
2022/08/04 12:18:23;;;;;;;10.43;3.70;;;;;;;37.34;25.04;100594.59;1703201;83;27401;-72
2022/08/04 12:20:57;;;;;;;3.22;2.62;;;;;;;37.39;25.65;100593.91;1697082;84;25652;-70
2022/08/04 12:23:32;;;;;;;4.42;3.02;;;;;;;37.35;24.62;100591.30;1690968;84;26001;-70
2022/08/04 12:26:03;;;;;;;6.25;2.58;;;;;;;37.28;25.49;100587.47;1698510;84;25803;-69
2022/08/04 12:28:34;;;;;;;2.90;2.70;;;;;;;37.45;25.19;100592.61;1707878;84;25891;-70
2022/08/04 12:31:06;;;;;;;6.37;2.70;;;;;;;37.22;24.87;100589.41;1673966;84;27433;-69
2022/08/04 12:33:43;;;;;;;3.08;2.50;;;;;;;37.19;25.63;100584.77;1682889;84;25815;-68
2022/08/04 12:36:30;;;;;;;2.77;2.47;;;;;;;37.37;25.15;100582.34;1688564;84;25820;-70